Observation data for Jayton on 08/14/2019      Previous  Date  Next       Current Mesonet Observations  Soil Data  Daily Summary Page  Observations in Plain Language
KJTS 140500Z 05007KT 29/19 A3004 RMK A01 T02910193  RH  059%=      5-min Rain = 0
KJTS 140505Z 04008KT 29/19 A3004 RMK A01 T02910193  RH  059%=      5-min Rain = 0
KJTS 140510Z 05008G14KT 29/19 A3004 RMK A01 T02900193  RH  059%=      5-min Rain = 0
KJTS 140515Z 06008KT 29/19 A3004 RMK A01 T02890192  RH  059%=      5-min Rain = 0
KJTS 140520Z 06009KT 29/19 A3004 RMK A01 T02890192  RH  059%=      5-min Rain = 0
KJTS 140525Z 06008KT 29/19 A3004 RMK A01 T02870192  RH  059%=      5-min Rain = 0
KJTS 140530Z 06008KT 29/19 A3004 RMK A01 T02860191  RH  060%=      5-min Rain = 0
KJTS 140535Z 06008KT 29/19 A3004 RMK A01 T02860191  RH  060%=      5-min Rain = 0
KJTS 140540Z 06007KT 29/19 A3004 RMK A01 T02850192  RH  060%=      5-min Rain = 0
KJTS 140545Z 06007KT 28/19 A3004 RMK A01 T02840191  RH  060%=      5-min Rain = 0
KJTS 140550Z 05007KT 28/19 A3004 RMK A01 T02830192  RH  061%=      5-min Rain = 0
KJTS 140555Z 05007KT 28/19 A3004 RMK A01 T02820191  RH  061%=      5-min Rain = 0
KJTS 140600Z 06007KT 28/19 A3005 RMK A01 T02810191  RH  061%=      5-min Rain = 0
KJTS 140605Z 06007KT 28/19 A3005 RMK A01 T02810191  RH  062%=      5-min Rain = 0
KJTS 140610Z 05008KT 28/19 A3005 RMK A01 T02810192  RH  061%=      5-min Rain = 0
KJTS 140615Z 06008KT 28/19 A3005 RMK A01 T02810191  RH  062%=      5-min Rain = 0
KJTS 140620Z 05008KT 28/19 A3005 RMK A01 T02810192  RH  062%=      5-min Rain = 0
KJTS 140625Z 05008KT 28/19 A3005 RMK A01 T02800192  RH  062%=      5-min Rain = 0
KJTS 140630Z 05007KT 28/19 A3005 RMK A01 T02790191  RH  062%=      5-min Rain = 0
KJTS 140635Z 06007KT 28/19 A3005 RMK A01 T02780191  RH  063%=      5-min Rain = 0
KJTS 140640Z 06008KT 28/19 A3005 RMK A01 T02780191  RH  063%=      5-min Rain = 0
KJTS 140645Z 05008KT 28/19 A3005 RMK A01 T02790191  RH  062%=      5-min Rain = 0
KJTS 140650Z 06009KT 28/19 A3005 RMK A01 T02790191  RH  062%=      5-min Rain = 0
KJTS 140655Z 05008KT 28/19 A3005 RMK A01 T02790191  RH  062%=      5-min Rain = 0
KJTS 140700Z 06008G13KT 28/19 A3005 RMK A01 T02790191  RH  062%=      5-min Rain = 0
KJTS 140705Z 06009KT 28/19 A3005 RMK A01 T02800191  RH  062%=      5-min Rain = 0
KJTS 140710Z 05009KT 28/19 A3005 RMK A01 T02800191  RH  062%=      5-min Rain = 0
KJTS 140715Z 05009KT 28/19 A3005 RMK A01 T02800191  RH  062%=      5-min Rain = 0
KJTS 140720Z 04008KT 28/19 A3005 RMK A01 T02800192  RH  062%=      5-min Rain = 0
KJTS 140725Z 04008G13KT 28/19 A3006 RMK A01 T02800192  RH  062%=      5-min Rain = 0
KJTS 140730Z 04009KT 28/19 A3006 RMK A01 T02800192  RH  062%=      5-min Rain = 0
KJTS 140735Z 04008KT 28/19 A3006 RMK A01 T02780191  RH  063%=      5-min Rain = 0
KJTS 140740Z 05009G14KT 28/19 A3005 RMK A01 T02780191  RH  063%=      5-min Rain = 0
KJTS 140745Z 04007KT 28/19 A3005 RMK A01 T02760191  RH  063%=      5-min Rain = 0
KJTS 140750Z 03008KT 28/19 A3005 RMK A01 T02750190  RH  063%=      5-min Rain = 0
KJTS 140755Z 03009KT 27/19 A3005 RMK A01 T02740190  RH  063%=      5-min Rain = 0
KJTS 140800Z 04009G14KT 27/19 A3005 RMK A01 T02730189  RH  064%=      5-min Rain = 0
KJTS 140805Z 04008KT 27/19 A3004 RMK A01 T02720190  RH  064%=      5-min Rain = 0
KJTS 140810Z 04009KT 27/19 A3004 RMK A01 T02710189  RH  064%=      5-min Rain = 0
KJTS 140815Z 03010KT 27/19 A3005 RMK A01 T02700189  RH  065%=      5-min Rain = 0
KJTS 140820Z 03009G14KT 27/19 A3005 RMK A01 T02700189  RH  065%=      5-min Rain = 0
KJTS 140825Z 04011KT 27/19 A3005 RMK A01 T02690189  RH  065%=      5-min Rain = 0
KJTS 140830Z 04010G15KT 27/19 A3005 RMK A01 T02690189  RH  065%=      5-min Rain = 0
KJTS 140835Z 04010KT 27/19 A3005 RMK A01 T02680189  RH  065%=      5-min Rain = 0
KJTS 140840Z 04008KT 27/19 A3004 RMK A01 T02680189  RH  065%=      5-min Rain = 0
KJTS 140845Z 04007KT 27/19 A3004 RMK A01 T02670189  RH  066%=      5-min Rain = 0
KJTS 140850Z 04007KT 27/19 A3003 RMK A01 T02660189  RH  066%=      5-min Rain = 0
KJTS 140855Z 04008KT 27/19 A3004 RMK A01 T02650189  RH  067%=      5-min Rain = 0
KJTS 140900Z 03008KT 26/19 A3004 RMK A01 T02640189  RH  067%=      5-min Rain = 0
KJTS 140905Z 04009KT 26/19 A3004 RMK A01 T02640189  RH  067%=      5-min Rain = 0
KJTS 140910Z 04008KT 26/19 A3004 RMK A01 T02630188  RH  067%=      5-min Rain = 0
KJTS 140915Z 04008G13KT 26/19 A3004 RMK A01 T02630188  RH  067%=      5-min Rain = 0
KJTS 140920Z 04009KT 26/19 A3004 RMK A01 T02630188  RH  067%=      5-min Rain = 0
KJTS 140925Z 04009G15KT 26/19 A3004 RMK A01 T02630188  RH  067%=      5-min Rain = 0
KJTS 140930Z 04011G17KT 26/19 A3004 RMK A01 T02630187  RH  067%=      5-min Rain = 0
KJTS 140935Z 05011G16KT 26/19 A3004 RMK A01 T02630187  RH  067%=      5-min Rain = 0
KJTS 140940Z 05011G16KT 26/19 A3004 RMK A01 T02620186  RH  067%=      5-min Rain = 0
KJTS 140945Z 04010G16KT 26/19 A3005 RMK A01 T02610186  RH  067%=      5-min Rain = 0
KJTS 140950Z 04010G16KT 26/19 A3004 RMK A01 T02600186  RH  067%=      5-min Rain = 0
KJTS 140955Z 05009KT 26/19 A3004 RMK A01 T02590185  RH  067%=      5-min Rain = 0
KJTS 141000Z 05010KT 26/19 A3004 RMK A01 T02580185  RH  068%=      5-min Rain = 0
KJTS 141005Z 05009KT 26/19 A3005 RMK A01 T02570185  RH  068%=      5-min Rain = 0
KJTS 141010Z 05008KT 26/19 A3005 RMK A01 T02560185  RH  068%=      5-min Rain = 0
KJTS 141015Z 05008KT 26/19 A3005 RMK A01 T02560185  RH  068%=      5-min Rain = 0
KJTS 141020Z 05008G13KT 26/19 A3006 RMK A01 T02550185  RH  069%=      5-min Rain = 0
KJTS 141025Z 05009G14KT 26/19 A3006 RMK A01 T02560185  RH  069%=      5-min Rain = 0
KJTS 141030Z 04008KT 26/19 A3006 RMK A01 T02550185  RH  069%=      5-min Rain = 0
KJTS 141035Z 03009KT 26/19 A3007 RMK A01 T02550185  RH  069%=      5-min Rain = 0
KJTS 141040Z 04009G15KT 25/19 A3007 RMK A01 T02540185  RH  069%=      5-min Rain = 0
KJTS 141045Z 04008G15KT 25/18 A3007 RMK A01 T02540184  RH  069%=      5-min Rain = 0
KJTS 141050Z 03009KT 25/18 A3007 RMK A01 T02530184  RH  069%=      5-min Rain = 0
KJTS 141055Z 02008KT 25/18 A3008 RMK A01 T02530184  RH  069%=      5-min Rain = 0
KJTS 141100Z 02010G15KT 25/19 A3008 RMK A01 T02510185  RH  071%=      5-min Rain = 0
KJTS 141105Z 03010G17KT 25/19 A3008 RMK A01 T02480186  RH  072%=      5-min Rain = 0
KJTS 141110Z 02010G15KT 25/19 A3008 RMK A01 T02470186  RH  073%=      5-min Rain = 0
KJTS 141115Z 03011G19KT 25/19 A3008 RMK A01 T02460186  RH  073%=      5-min Rain = 0
KJTS 141120Z 03011G17KT 25/19 A3009 RMK A01 T02460185  RH  073%=      5-min Rain = 0
KJTS 141125Z 03010G16KT 25/19 A3009 RMK A01 T02450185  RH  073%=      5-min Rain = 0
KJTS 141130Z 03011G17KT 25/19 A3009 RMK A01 T02450186  RH  074%=      5-min Rain = 0
KJTS 141135Z 03011KT 24/19 A3009 RMK A01 T02440186  RH  074%=      5-min Rain = 0
KJTS 141140Z 03011G17KT 24/19 A3009 RMK A01 T02430186  RH  075%=      5-min Rain = 0
KJTS 141145Z 04011G17KT 24/19 A3009 RMK A01 T02420185  RH  074%=      5-min Rain = 0
KJTS 141150Z 03009G16KT 24/18 A3009 RMK A01 T02420184  RH  074%=      5-min Rain = 0
KJTS 141155Z 02008G13KT 24/18 A301 RMK A01 T02380184  RH  076%=      5-min Rain = 0
KJTS 141200Z 02009G14KT 24/18 A301 RMK A01 T02350184  RH  077%=      5-min Rain = 0
KJTS 141205Z 03008G13KT 23/18 A301 RMK A01 T02340184  RH  078%=      5-min Rain = 0
KJTS 141210Z 03008KT 23/18 A301 RMK A01 T02330184  RH  078%=      5-min Rain = 0
KJTS 141215Z 03008G13KT 23/18 A301 RMK A01 T02320183  RH  078%=      5-min Rain = 0
KJTS 141220Z 02008G14KT 23/18 A301 RMK A01 T02320183  RH  078%=      5-min Rain = 0
KJTS 141225Z 02009G14KT 23/18 A301 RMK A01 T02320182  RH  078%=      5-min Rain = 0
KJTS 141230Z 02009KT 23/18 A3011 RMK A01 T02320181  RH  077%=      5-min Rain = 0
KJTS 141235Z 02008G15KT 23/18 A3012 RMK A01 T02320181  RH  077%=      5-min Rain = 0
KJTS 141240Z 02008G13KT 23/18 A3012 RMK A01 T02320180  RH  077%=      5-min Rain = 0
KJTS 141245Z 01009KT 23/18 A3012 RMK A01 T02320179  RH  076%=      5-min Rain = 0
KJTS 141250Z 02008G14KT 23/18 A3012 RMK A01 T02310179  RH  076%=      5-min Rain = 0
KJTS 141255Z 02009KT 23/18 A3013 RMK A01 T02310178  RH  076%=      5-min Rain = 0
KJTS 141300Z 01010G16KT 23/18 A3013 RMK A01 T02300178  RH  076%=      5-min Rain = 0
KJTS 141305Z 02009KT 23/18 A3012 RMK A01 T02300176  RH  075%=      5-min Rain = 0
KJTS 141310Z 02013G18KT 23/18 A3013 RMK A01 T02300175  RH  075%=      5-min Rain = 0
KJTS 141315Z 02010G16KT 23/17 A3013 RMK A01 T02290174  RH  075%=      5-min Rain = 0
KJTS 141320Z 02011G18KT 23/17 A3013 RMK A01 T02300174  RH  074%=      5-min Rain = 0
KJTS 141325Z 02009G15KT 23/17 A3013 RMK A01 T02320174  RH  073%=      5-min Rain = 0
KJTS 141330Z 02011G17KT 23/17 A3013 RMK A01 T02340174  RH  072%=      5-min Rain = 0
KJTS 141335Z 02009G15KT 24/17 A3013 RMK A01 T02360174  RH  072%=      5-min Rain = 0
KJTS 141340Z 02007G13KT 24/18 A3013 RMK A01 T02390175  RH  071%=      5-min Rain = 0
KJTS 141345Z 02009G14KT 24/17 A3014 RMK A01 T02410174  RH  070%=      5-min Rain = 0
KJTS 141350Z 03009G14KT 24/18 A3014 RMK A01 T02410175  RH  070%=      5-min Rain = 0
KJTS 141355Z 02010G18KT 24/18 A3014 RMK A01 T02420175  RH  070%=      5-min Rain = 0
KJTS 141400Z 02009G16KT 24/18 A3015 RMK A01 T02400175  RH  070%=      5-min Rain = 0
KJTS 141405Z 02010G15KT 24/18 A3015 RMK A01 T02410175  RH  070%=      5-min Rain = 0
KJTS 141410Z 02012KT 24/18 A3015 RMK A01 T02410175  RH  070%=      5-min Rain = 0
KJTS 141415Z 02009G14KT 24/18 A3015 RMK A01 T02430176  RH  070%=      5-min Rain = 0
KJTS 141420Z 02010G16KT 25/18 A3015 RMK A01 T02490178  RH  068%=      5-min Rain = 0
KJTS 141425Z 02010G15KT 25/18 A3016 RMK A01 T02500179  RH  068%=      5-min Rain = 0
KJTS 141430Z 02009G15KT 25/18 A3016 RMK A01 T02540180  RH  067%=      5-min Rain = 0
KJTS 141435Z 02009G14KT 25/18 A3016 RMK A01 T02540180  RH  067%=      5-min Rain = 0
KJTS 141440Z 03010G16KT 25/18 A3017 RMK A01 T02540181  RH  067%=      5-min Rain = 0
KJTS 141445Z 03010KT 25/18 A3017 RMK A01 T02540181  RH  067%=      5-min Rain = 0
KJTS 141450Z 03008KT 26/18 A3016 RMK A01 T02590182  RH  066%=      5-min Rain = 0
KJTS 141455Z 03009KT 26/18 A3017 RMK A01 T02580182  RH  066%=      5-min Rain = 0
KJTS 141500Z 03008KT 26/18 A3017 RMK A01 T02610183  RH  065%=      5-min Rain = 0
KJTS 141505Z 04010G16KT 26/18 A3017 RMK A01 T02630183  RH  065%=      5-min Rain = 0
KJTS 141510Z 03009G14KT 26/18 A3017 RMK A01 T02620183  RH  065%=      5-min Rain = 0
KJTS 141515Z 02009G14KT 27/18 A3017 RMK A01 T02660184  RH  064%=      5-min Rain = 0
KJTS 141520Z 03008G15KT 27/18 A3017 RMK A01 T02660184  RH  064%=      5-min Rain = 0
KJTS 141525Z 01007G13KT 27/19 A3016 RMK A01 T02700186  RH  063%=      5-min Rain = 0
KJTS 141530Z 01007G13KT 27/19 A3016 RMK A01 T02730186  RH  062%=      5-min Rain = 0
KJTS 141535Z 02007G12KT 27/19 A3016 RMK A01 T02720185  RH  062%=      5-min Rain = 0
KJTS 141540Z 02008KT 28/19 A3016 RMK A01 T02750186  RH  062%=      5-min Rain = 0
KJTS 141545Z 03005KT 28/19 A3016 RMK A01 T02780187  RH  061%=      5-min Rain = 0
KJTS 141550Z 05008KT 28/19 A3016 RMK A01 T02790187  RH  060%=      5-min Rain = 0
KJTS 141555Z 03007KT 29/19 A3016 RMK A01 T02850188  RH  059%=      5-min Rain = 0
KJTS 141600Z 05008KT 29/19 A3016 RMK A01 T02850188  RH  059%=      5-min Rain = 0
KJTS 141605Z 05007G12KT 29/19 A3016 RMK A01 T02860189  RH  059%=      5-min Rain = 0
KJTS 141610Z 04006G12KT 29/19 A3015 RMK A01 T02900190  RH  058%=      5-min Rain = 0
KJTS 141615Z 02007KT 29/19 A3016 RMK A01 T02900189  RH  058%=      5-min Rain = 0
KJTS 141620Z 05007G13KT 29/19 A3016 RMK A01 T02910190  RH  058%=      5-min Rain = 0
KJTS 141625Z 03007KT 30/19 A3016 RMK A01 T02980192  RH  056%=      5-min Rain = 0
KJTS 141630Z 05006G11KT 30/19 A3016 RMK A01 T02960191  RH  056%=      5-min Rain = 0
KJTS 141635Z 05008KT 30/19 A3016 RMK A01 T02960191  RH  056%=      5-min Rain = 0
KJTS 141640Z 03005KT 30/19 A3015 RMK A01 T02950192  RH  057%=      5-min Rain = 0
KJTS 141645Z 05007KT 30/19 A3015 RMK A01 T03030192  RH  054%=      5-min Rain = 0
KJTS 141650Z 02008G13KT 30/19 A3015 RMK A01 T02970192  RH  056%=      5-min Rain = 0
KJTS 141655Z 05008G13KT 30/19 A3014 RMK A01 T03030192  RH  054%=      5-min Rain = 0
KJTS 141700Z 05008G13KT 30/19 A3014 RMK A01 T03040190  RH  054%=      5-min Rain = 0
KJTS 141705Z 05007G13KT 31/19 A3014 RMK A01 T03100191  RH  052%=      5-min Rain = 0
KJTS 141710Z 04007KT 31/19 A3014 RMK A01 T03080190  RH  052%=      5-min Rain = 0
KJTS 141715Z 04007KT 31/19 A3013 RMK A01 T03110190  RH  052%=      5-min Rain = 0
KJTS 141720Z 04007G13KT 31/19 A3013 RMK A01 T03140190  RH  051%=      5-min Rain = 0
KJTS 141725Z 05008G15KT 31/19 A3013 RMK A01 T03100187  RH  051%=      5-min Rain = 0
KJTS 141730Z 04008G13KT 31/19 A3013 RMK A01 T03120185  RH  050%=      5-min Rain = 0
KJTS 141735Z 06008G13KT 31/18 A3013 RMK A01 T03140184  RH  049%=      5-min Rain = 0
KJTS 141740Z 06010KT 32/18 A3012 RMK A01 T03200184  RH  047%=      5-min Rain = 0
KJTS 141745Z 07009G17KT 32/18 A3012 RMK A01 T03220182  RH  046%=      5-min Rain = 0
KJTS 141750Z 04009G14KT 33/19 A3012 RMK A01 T03250185  RH  046%=      5-min Rain = 0
KJTS 141755Z 02009G15KT 33/18 A3011 RMK A01 T03260180  RH  044%=      5-min Rain = 0
KJTS 141800Z 02010G15KT 33/18 A3011 RMK A01 T03260179  RH  044%=      5-min Rain = 0
KJTS 141805Z 02010G15KT 33/18 A3011 RMK A01 T03270182  RH  044%=      5-min Rain = 0
KJTS 141810Z 06009G14KT 33/18 A301 RMK A01 T03280180  RH  044%=      5-min Rain = 0
KJTS 141815Z 05009G16KT 33/18 A301 RMK A01 T03270178  RH  043%=      5-min Rain = 0
KJTS 141820Z 03009G14KT 33/18 A3009 RMK A01 T03290175  RH  042%=      5-min Rain = 0
KJTS 141825Z 05008G13KT 33/18 A3009 RMK A01 T03300181  RH  043%=      5-min Rain = 0
KJTS 141830Z 06011G16KT 34/17 A3009 RMK A01 T03360172  RH  040%=      5-min Rain = 0
KJTS 141835Z 08008G13KT 33/18 A3009 RMK A01 T03340175  RH  041%=      5-min Rain = 0
KJTS 141840Z 07010G15KT 34/18 A3009 RMK A01 T03400175  RH  040%=      5-min Rain = 0
KJTS 141845Z 06012G17KT 34/17 A3008 RMK A01 T03390168  RH  038%=      5-min Rain = 0
KJTS 141850Z 06011G17KT 34/17 A3008 RMK A01 T03400172  RH  039%=      5-min Rain = 0
KJTS 141855Z 05012KT 34/17 A3008 RMK A01 T03400170  RH  038%=      5-min Rain = 0
KJTS 141900Z 06006G12KT 34/17 A3008 RMK A01 T03430165  RH  036%=      5-min Rain = 0
KJTS 141905Z 06009G16KT 35/17 A3008 RMK A01 T03470169  RH  037%=      5-min Rain = 0
KJTS 141910Z 06009KT 34/17 A3008 RMK A01 T03440168  RH  037%=      5-min Rain = 0
KJTS 141915Z 06013G19KT 35/17 A3008 RMK A01 T03470165  RH  035%=      5-min Rain = 0
KJTS 141920Z 05011G16KT 35/17 A3008 RMK A01 T03470168  RH  036%=      5-min Rain = 0
KJTS 141925Z 04010G16KT 35/17 A3008 RMK A01 T03460165  RH  036%=      5-min Rain = 0
KJTS 141930Z 05011G21KT 35/16 A3007 RMK A01 T03470163  RH  035%=      5-min Rain = 0
KJTS 141935Z 10012G19KT 35/17 A3007 RMK A01 T03500166  RH  035%=      5-min Rain = 0
KJTS 141940Z 09015G20KT 35/16 A3006 RMK A01 T03540163  RH  034%=      5-min Rain = 0
KJTS 141945Z 07009G15KT 35/16 A3006 RMK A01 T03490161  RH  034%=      5-min Rain = 0
KJTS 141950Z 07010KT 36/16 A3006 RMK A01 T03570162  RH  033%=      5-min Rain = 0
KJTS 141955Z 07010KT 36/16 A3006 RMK A01 T03560155  RH  032%=      5-min Rain = 0
KJTS 142000Z 06008G14KT 35/17 A3006 RMK A01 T03530166  RH  035%=      5-min Rain = 0
KJTS 142005Z 07012G18KT 35/17 A3006 RMK A01 T03530165  RH  034%=      5-min Rain = 0
KJTS 142010Z 08013G20KT 35/17 A3005 RMK A01 T03540166  RH  034%=      5-min Rain = 0
KJTS 142015Z 08014G20KT 36/16 A3005 RMK A01 T03550162  RH  034%=      5-min Rain = 0
KJTS 142020Z 07011G17KT 35/16 A3005 RMK A01 T03540164  RH  034%=      5-min Rain = 0
KJTS 142025Z 07008G17KT 35/16 A3004 RMK A01 T03530164  RH  034%=      5-min Rain = 0
KJTS 142030Z 06011KT 36/16 A3004 RMK A01 T03560157  RH  032%=      5-min Rain = 0
KJTS 142035Z 09012G20KT 35/16 A3003 RMK A01 T03530159  RH  033%=      5-min Rain = 0
KJTS 142040Z 05011G18KT 36/16 A3003 RMK A01 T03560161  RH  033%=      5-min Rain = 0
KJTS 142045Z 06010G18KT 36/17 A3003 RMK A01 T03550165  RH  034%=      5-min Rain = 0
KJTS 142050Z 08014G19KT 36/16 A3003 RMK A01 T03580164  RH  033%=      5-min Rain = 0
KJTS 142055Z 10007G15KT 35/16 A3003 RMK A01 T03510161  RH  034%=      5-min Rain = 0
KJTS 142100Z 07011G17KT 36/16 A3002 RMK A01 T03600160  RH  032%=      5-min Rain = 0
KJTS 142105Z 04011G17KT 36/16 A3003 RMK A01 T03550156  RH  032%=      5-min Rain = 0
KJTS 142110Z 05005G11KT 36/16 A3002 RMK A01 T03560157  RH  032%=      5-min Rain = 0
KJTS 142115Z 07012KT 36/16 A3002 RMK A01 T03630159  RH  031%=      5-min Rain = 0
KJTS 142120Z 08007KT 35/16 A3002 RMK A01 T03540157  RH  032%=      5-min Rain = 0
KJTS 142125Z 07009KT 36/16 A3002 RMK A01 T03560156  RH  032%=      5-min Rain = 0
KJTS 142130Z 05009G16KT 36/16 A3001 RMK A01 T03590162  RH  033%=      5-min Rain = 0
KJTS 142135Z 06010G15KT 36/16 A3001 RMK A01 T03600160  RH  032%=      5-min Rain = 0
KJTS 142140Z 05009G14KT 36/15 A3001 RMK A01 T03560153  RH  031%=      5-min Rain = 0
KJTS 142145Z 06006KT 36/16 A3001 RMK A01 T03570156  RH  032%=      5-min Rain = 0
KJTS 142150Z 09012G18KT 36/16 A3001 RMK A01 T03610161  RH  032%=      5-min Rain = 0
KJTS 142155Z 09008G14KT 36/16 A3001 RMK A01 T03580163  RH  033%=      5-min Rain = 0
KJTS 142200Z 12008G13KT 36/16 A30 RMK A01 T03580164  RH  033%=      5-min Rain = 0
KJTS 142205Z 07010KT 36/16 A3001 RMK A01 T03580160  RH  032%=      5-min Rain = 0
KJTS 142210Z 07010G15KT 36/16 A3001 RMK A01 T03610164  RH  033%=      5-min Rain = 0
KJTS 142215Z 08008G14KT 36/16 A30 RMK A01 T03570161  RH  033%=      5-min Rain = 0
KJTS 142220Z 09008G13KT 36/16 A30 RMK A01 T03590159  RH  032%=      5-min Rain = 0
KJTS 142225Z 09010KT 36/16 A30 RMK A01 T03570160  RH  032%=      5-min Rain = 0
KJTS 142230Z 07010G16KT 36/16 A30 RMK A01 T03570156  RH  032%=      5-min Rain = 0
KJTS 142235Z 06008G14KT 36/16 A30 RMK A01 T03580157  RH  032%=      5-min Rain = 0
KJTS 142240Z 07010KT 36/15 A30 RMK A01 T03560154  RH  032%=      5-min Rain = 0
KJTS 142245Z 07008G15KT 35/15 A30 RMK A01 T03540152  RH  032%=      5-min Rain = 0
KJTS 142250Z 06010KT 36/16 A30 RMK A01 T03570158  RH  032%=      5-min Rain = 0
KJTS 142255Z 07011G18KT 36/16 A30 RMK A01 T03560160  RH  033%=      5-min Rain = 0
KJTS 142300Z 09011KT 36/16 A3001 RMK A01 T03570162  RH  033%=      5-min Rain = 0
KJTS 142305Z 09011G16KT 35/16 A3001 RMK A01 T03510162  RH  034%=      5-min Rain = 0
KJTS 142310Z 07011KT 35/16 A30 RMK A01 T03500160  RH  034%=      5-min Rain = 0
KJTS 142315Z 07012G17KT 35/16 A30 RMK A01 T03540159  RH  033%=      5-min Rain = 0
KJTS 142320Z 08011G16KT 35/16 A3001 RMK A01 T03520158  RH  033%=      5-min Rain = 0
KJTS 142325Z 09009G14KT 35/16 A3001 RMK A01 T03510160  RH  034%=      5-min Rain = 0
KJTS 142330Z 11009G14KT 35/17 A30 RMK A01 T03500165  RH  035%=      5-min Rain = 0
KJTS 142335Z 11011G16KT 35/17 A30 RMK A01 T03490171  RH  036%=      5-min Rain = 0
KJTS 142340Z 10013G18KT 35/17 A30 RMK A01 T03500168  RH  036%=      5-min Rain = 0
KJTS 142345Z 10011KT 35/17 A30 RMK A01 T03480167  RH  036%=      5-min Rain = 0
KJTS 142350Z 09011KT 35/17 A30 RMK A01 T03450167  RH  036%=      5-min Rain = 0
KJTS 142355Z 09009KT 34/17 A3001 RMK A01 T03390166  RH  038%=      5-min Rain = 0
KJTS 150000Z 09009KT 34/17 A30 RMK A01 T03370168  RH  038%=      5-min Rain = 0
KJTS 150005Z 10010KT 34/17 A30 RMK A01 T03410168  RH  037%=      5-min Rain = 0
KJTS 150010Z 09012KT 34/17 A30 RMK A01 T03420165  RH  037%=      5-min Rain = 0
KJTS 150015Z 09010KT 34/16 A3001 RMK A01 T03420164  RH  036%=      5-min Rain = 0
KJTS 150020Z 09011KT 34/16 A30 RMK A01 T03410161  RH  036%=      5-min Rain = 0
KJTS 150025Z 09010KT 34/16 A30 RMK A01 T03390162  RH  036%=      5-min Rain = 0
KJTS 150030Z 10008KT 34/16 A30 RMK A01 T03400162  RH  036%=      5-min Rain = 0
KJTS 150035Z 09008KT 34/16 A3001 RMK A01 T03390162  RH  037%=      5-min Rain = 0
KJTS 150040Z 08009KT 34/17 A3001 RMK A01 T03380165  RH  037%=      5-min Rain = 0
KJTS 150045Z 07008KT 34/16 A3001 RMK A01 T03360164  RH  038%=      5-min Rain = 0
KJTS 150050Z 09007KT 34/17 A3001 RMK A01 T03350166  RH  038%=      5-min Rain = 0
KJTS 150055Z 09007KT 33/17 A3001 RMK A01 T03340168  RH  039%=      5-min Rain = 0
KJTS 150100Z 10010KT 33/17 A3002 RMK A01 T03320174  RH  041%=      5-min Rain = 0
KJTS 150105Z 09010KT 33/18 A3002 RMK A01 T03290175  RH  042%=      5-min Rain = 0
KJTS 150110Z 10010KT 33/18 A3002 RMK A01 T03270175  RH  042%=      5-min Rain = 0
KJTS 150115Z 10010KT 33/17 A3002 RMK A01 T03250174  RH  042%=      5-min Rain = 0
KJTS 150120Z 10009KT 32/17 A3002 RMK A01 T03240174  RH  043%=      5-min Rain = 0
KJTS 150125Z 10009KT 32/17 A3003 RMK A01 T03220174  RH  044%=      5-min Rain = 0
KJTS 150130Z 09009KT 32/18 A3003 RMK A01 T03210175  RH  044%=      5-min Rain = 0
KJTS 150135Z 10008KT 32/18 A3003 RMK A01 T03180176  RH  045%=      5-min Rain = 0
KJTS 150140Z 10008KT 32/18 A3003 RMK A01 T03160175  RH  045%=      5-min Rain = 0
KJTS 150145Z 10007KT 32/18 A3003 RMK A01 T03150175  RH  046%=      5-min Rain = 0
KJTS 150150Z 09007KT 31/18 A3003 RMK A01 T03120175  RH  046%=      5-min Rain = 0
KJTS 150155Z 09007KT 31/18 A3003 RMK A01 T03110175  RH  047%=      5-min Rain = 0
KJTS 150200Z 09007KT 31/18 A3004 RMK A01 T03100175  RH  047%=      5-min Rain = 0
KJTS 150205Z 09006KT 31/18 A3004 RMK A01 T03080175  RH  047%=      5-min Rain = 0
KJTS 150210Z 10006KT 31/18 A3005 RMK A01 T03050175  RH  048%=      5-min Rain = 0
KJTS 150215Z 10006KT 30/18 A3005 RMK A01 T03030175  RH  049%=      5-min Rain = 0
KJTS 150220Z 10007KT 30/18 A3005 RMK A01 T03020176  RH  049%=      5-min Rain = 0
KJTS 150225Z 09007KT 30/18 A3006 RMK A01 T03010176  RH  049%=      5-min Rain = 0
KJTS 150230Z 09007KT 30/18 A3006 RMK A01 T03010176  RH  050%=      5-min Rain = 0
KJTS 150235Z 09007KT 30/18 A3006 RMK A01 T03000176  RH  050%=      5-min Rain = 0
KJTS 150240Z 09007KT 30/18 A3007 RMK A01 T02980176  RH  050%=      5-min Rain = 0
KJTS 150245Z 09007KT 30/18 A3007 RMK A01 T02980176  RH  050%=      5-min Rain = 0
KJTS 150250Z 09007KT 30/18 A3007 RMK A01 T02970175  RH  050%=      5-min Rain = 0
KJTS 150255Z 09007KT 30/18 A3007 RMK A01 T02960175  RH  051%=      5-min Rain = 0
KJTS 150300Z 10007KT 30/18 A3007 RMK A01 T02950175  RH  051%=      5-min Rain = 0
KJTS 150305Z 10008KT 29/18 A3008 RMK A01 T02940175  RH  051%=      5-min Rain = 0
KJTS 150310Z 09008KT 29/18 A3008 RMK A01 T02940175  RH  051%=      5-min Rain = 0
KJTS 150315Z 09007KT 29/18 A3008 RMK A01 T02940175  RH  051%=      5-min Rain = 0
KJTS 150320Z 09008KT 29/18 A3008 RMK A01 T02920175  RH  052%=      5-min Rain = 0
KJTS 150325Z 09008KT 29/18 A3008 RMK A01 T02910175  RH  052%=      5-min Rain = 0
KJTS 150330Z 09008KT 29/18 A3008 RMK A01 T02900175  RH  052%=      5-min Rain = 0
KJTS 150335Z 10008KT 29/18 A3008 RMK A01 T02900175  RH  053%=      5-min Rain = 0
KJTS 150340Z 10007KT 29/18 A3008 RMK A01 T02880175  RH  053%=      5-min Rain = 0
KJTS 150345Z 10007KT 29/18 A3008 RMK A01 T02880176  RH  054%=      5-min Rain = 0
KJTS 150350Z 10007KT 29/18 A3008 RMK A01 T02870177  RH  054%=      5-min Rain = 0
KJTS 150355Z 10007KT 29/18 A3008 RMK A01 T02850177  RH  055%=      5-min Rain = 0
KJTS 150400Z 10007KT 29/18 A3008 RMK A01 T02850177  RH  055%=      5-min Rain = 0
KJTS 150405Z 10007KT 28/18 A3009 RMK A01 T02840178  RH  055%=      5-min Rain = 0
KJTS 150410Z 09007KT 28/18 A3009 RMK A01 T02830178  RH  056%=      5-min Rain = 0
KJTS 150415Z 09008KT 28/18 A3009 RMK A01 T02840179  RH  056%=      5-min Rain = 0
KJTS 150420Z 09009KT 29/18 A3009 RMK A01 T02850179  RH  055%=      5-min Rain = 0
KJTS 150425Z 10008KT 29/18 A3009 RMK A01 T02850180  RH  056%=      5-min Rain = 0
KJTS 150430Z 10007KT 28/18 A3009 RMK A01 T02820180  RH  057%=      5-min Rain = 0
KJTS 150435Z 10008KT 28/18 A3009 RMK A01 T02830181  RH  057%=      5-min Rain = 0
KJTS 150440Z 10008KT 28/18 A3009 RMK A01 T02820181  RH  057%=      5-min Rain = 0
KJTS 150445Z 10008KT 28/18 A3009 RMK A01 T02810182  RH  058%=      5-min Rain = 0
KJTS 150450Z 10008KT 28/18 A3009 RMK A01 T02800181  RH  058%=      5-min Rain = 0
KJTS 150455Z 10008KT 28/18 A3009 RMK A01 T02790181  RH  058%=      5-min Rain = 0

Page generated in 0.0127 seconds.